Time;durP1;ratioP1;P1;durP2;ratioP2;P2;SDS_P1;SDS_P2;PMS_P1;PMS_P2;Temp;Humidity;BMP_temperature;BMP_pressure;BME280_temperature;BME280_humidity;BME280_pressure;Samples;Min_cycle;Max_cycle;Signal;HPM_P1;HPM_P2
2021/03/20 00:04:59;;;;;;;6.78;4.18;;;3.00;99.90;;;;;;6717123;88;20313;-78
2021/03/20 00:15:41;;;;;;;6.40;4.40;;;3.10;99.90;;;;;;6663039;78;20707;-77
2021/03/20 00:25:41;;;;;;;7.62;4.70;;;3.20;99.90;;;;;;6729208;88;20189;-77
2021/03/20 00:35:42;;;;;;;7.18;4.25;;;3.30;99.90;;;;;;6728475;88;20189;-77
2021/03/20 00:45:42;;;;;;;7.57;4.53;;;3.40;99.90;;;;;;6722687;88;20197;-77
2021/03/20 00:55:43;;;;;;;7.32;4.62;;;3.40;99.90;;;;;;6731748;88;20184;-77
2021/03/20 01:05:44;;;;;;;9.10;4.85;;;3.50;99.90;;;;;;6733225;88;20209;-77
2021/03/20 01:15:45;;;;;;;9.13;4.90;;;3.30;99.90;;;;;;6731824;88;20201;-77
2021/03/20 01:25:46;;;;;;;7.05;4.87;;;2.80;99.90;;;;;;6730792;88;20190;-76
2021/03/20 01:35:47;;;;;;;8.95;5.07;;;2.50;99.90;;;;;;6718477;88;21060;-77
2021/03/20 01:45:47;;;;;;;11.00;5.10;;;2.20;99.90;;;;;;6737527;88;20194;-78
2021/03/20 01:55:48;;;;;;;9.60;5.20;;;2.10;99.90;;;;;;6728332;88;20198;-77
2021/03/20 02:05:49;;;;;;;9.27;5.47;;;1.90;99.90;;;;;;6739126;88;20519;-76
2021/03/20 02:16:01;;;;;;;8.82;5.15;;;1.70;99.90;;;;;;6735563;88;20602;-77
2021/03/20 02:26:29;;;;;;;10.23;5.70;;;1.60;99.90;;;;;;6734251;88;20284;-77
2021/03/20 02:36:48;;;;;;;9.15;5.82;;;1.60;99.90;;;;;;6725070;88;21058;-77
2021/03/20 02:47:06;;;;;;;9.88;5.80;;;1.40;99.90;;;;;;6732920;88;20216;-76
2021/03/20 02:57:09;;;;;;;11.32;6.05;;;1.10;99.90;;;;;;6729895;88;20291;-76
2021/03/20 03:07:25;;;;;;;9.35;5.70;;;1.10;99.90;;;;;;6736362;88;20214;-77
2021/03/20 03:17:27;;;;;;;10.07;6.23;;;1.00;99.90;;;;;;6729339;88;20201;-76
2021/03/20 03:27:31;;;;;;;11.05;6.07;;;1.00;99.90;;;;;;6735376;88;21306;-78
2021/03/20 03:37:40;;;;;;;10.13;5.85;;;0.90;99.90;;;;;;6732592;88;20208;-77
2021/03/20 03:47:41;;;;;;;9.43;6.22;;;0.80;99.90;;;;;;6737476;88;20267;-78
2021/03/20 03:58:07;;;;;;;11.35;5.95;;;0.60;99.90;;;;;;6736181;88;20236;-79
2021/03/20 04:08:32;;;;;;;12.20;6.15;;;0.70;99.90;;;;;;6720066;88;20202;-79
2021/03/20 04:19:04;;;;;;;10.68;5.80;;;0.50;99.90;;;;;;6724907;88;20679;-78
2021/03/20 04:29:18;;;;;;;10.82;6.20;;;0.40;99.90;;;;;;6731749;88;20203;-76
2021/03/20 04:39:21;;;;;;;11.50;6.60;;;0.40;99.90;;;;;;6724607;88;20216;-79
2021/03/20 04:49:37;;;;;;;10.82;6.65;;;0.40;99.90;;;;;;6723059;88;20833;-79
2021/03/20 04:59:44;;;;;;;12.43;6.37;;;0.50;99.90;;;;;;6735311;88;21022;-79
2021/03/20 05:09:45;;;;;;;;;;;0.60;99.90;;;;;;6726221;88;20625;-80
2021/03/20 05:19:45;;;;;;;12.10;6.87;;;0.70;99.90;;;;;;6734569;88;20066;-79
2021/03/20 05:29:46;;;;;;;13.48;6.82;;;0.80;99.90;;;;;;6716127;88;20206;-79
2021/03/20 05:39:47;;;;;;;12.50;6.53;;;0.80;99.90;;;;;;6735623;88;20203;-78
2021/03/20 05:50:25;;;;;;;12.77;7.47;;;0.70;99.90;;;;;;6738045;88;20706;-79
2021/03/20 06:00:46;;;;;;;13.48;7.45;;;0.70;99.90;;;;;;6721027;88;20184;-75
2021/03/20 07:01:19;;;;;;;8.05;4.55;;;1.30;99.90;;;;;;7354827;77;20254;-83
2021/03/20 07:41:48;;;;;;;9.35;4.93;;;2.40;99.90;;;;;;6734178;88;20205;-82
2021/03/20 07:52:00;;;;;;;8.20;4.65;;;3.10;99.90;;;;;;6711029;88;20155;-80
2021/03/20 08:02:03;;;;;;;7.53;4.40;;;4.10;99.90;;;;;;6711831;88;20228;-82
2021/03/20 08:22:32;;;;;;;8.13;4.90;;;5.80;99.90;;;;;;6699213;88;20199;-80
2021/03/20 08:43:55;;;;;;;7.25;4.40;;;6.90;99.90;;;;;;6713656;88;20255;-78
2021/03/20 08:54:24;;;;;;;6.78;4.50;;;7.20;99.90;;;;;;6696155;88;20665;-78
2021/03/20 09:04:29;;;;;;;5.65;3.78;;;7.60;99.90;;;;;;6711092;88;20226;-79
2021/03/20 09:14:37;;;;;;;6.93;4.40;;;7.90;99.90;;;;;;6716726;88;20229;-78
2021/03/20 09:25:01;;;;;;;12.05;4.57;;;9.10;99.30;;;;;;6723124;88;20236;-80
2021/03/20 09:35:19;;;;;;;5.95;3.53;;;8.90;97.20;;;;;;6707905;88;20282;-81
2021/03/20 09:45:19;;;;;;;4.85;2.80;;;10.00;93.10;;;;;;6702852;89;20201;-80
2021/03/20 09:55:29;;;;;;;5.00;3.10;;;10.60;88.40;;;;;;6705259;88;20206;-80
2021/03/20 10:05:30;;;;;;;5.65;3.47;;;11.00;83.80;;;;;;6697907;89;20218;-81
2021/03/20 10:15:36;;;;;;;4.80;3.15;;;10.40;85.50;;;;;;6703805;89;20219;-81
2021/03/20 10:25:45;;;;;;;7.40;3.15;;;11.00;77.40;;;;;;6705259;88;20179;-81
2021/03/20 10:35:45;;;;;;;5.37;2.80;;;11.60;76.80;;;;;;6696422;88;20194;-80
2021/03/20 10:45:46;;;;;;;5.30;3.30;;;12.00;69.20;;;;;;6705894;88;20211;-80
2021/03/20 10:55:53;;;;;;;4.15;2.40;;;12.10;70.90;;;;;;6713207;88;20639;-79
2021/03/20 11:05:54;;;;;;;5.85;2.92;;;12.10;60.50;;;;;;6712051;88;20233;-79
2021/03/20 11:16:04;;;;;;;3.83;2.72;;;12.20;62.80;;;;;;6711235;88;20305;-79
2021/03/20 11:26:16;;;;;;;3.95;2.37;;;12.60;63.00;;;;;;6713406;88;20207;-79
2021/03/20 11:36:23;;;;;;;4.40;2.58;;;11.90;62.40;;;;;;6723288;88;20282;-82
2021/03/20 11:46:32;;;;;;;4.57;2.30;;;13.40;59.70;;;;;;6715682;88;20217;-80
2021/03/20 12:06:38;;;;;;;4.73;2.63;;;13.70;58.00;;;;;;6721408;88;20186;-79
2021/03/20 12:17:20;;;;;;;4.32;2.50;;;12.80;60.10;;;;;;6714736;77;20207;-78
2021/03/20 12:27:33;;;;;;;3.35;2.40;;;13.10;56.60;;;;;;6722556;88;20182;-78
2021/03/20 12:37:33;;;;;;;5.20;2.37;;;13.40;55.40;;;;;;6717838;88;20214;-78
2021/03/20 12:47:34;;;;;;;6.22;3.12;;;13.00;56.40;;;;;;6739749;88;20281;-83
2021/03/20 12:57:36;;;;;;;5.72;2.78;;;13.00;55.10;;;;;;6751283;88;20148;-81
2021/03/20 13:07:36;;;;;;;5.10;2.67;;;12.60;56.20;;;;;;6750481;88;20279;-84
2021/03/20 13:17:37;;;;;;;5.05;2.65;;;13.10;54.50;;;;;;6749067;88;21063;-81
2021/03/20 13:27:38;;;;;;;5.80;2.15;;;12.90;52.40;;;;;;6748430;88;20215;-81
2021/03/20 13:37:39;;;;;;;3.62;2.00;;;12.30;53.50;;;;;;6745980;88;20193;-82
2021/03/20 13:47:40;;;;;;;4.47;2.33;;;13.30;51.80;;;;;;6735561;88;20302;-80
2021/03/20 13:57:40;;;;;;;4.72;2.12;;;13.60;52.00;;;;;;6730258;88;20217;-74
2021/03/20 14:07:43;;;;;;;3.65;2.12;;;13.10;51.40;;;;;;6738385;88;20186;-80
2021/03/20 14:17:44;;;;;;;4.50;1.90;;;11.90;49.30;;;;;;6738503;88;20223;-79
2021/03/20 14:27:45;;;;;;;4.90;2.20;;;12.00;50.20;;;;;;6737938;88;20642;-80
2021/03/20 14:37:46;;;;;;;3.55;2.05;;;12.40;49.80;;;;;;6730894;88;20645;-80
2021/03/20 14:47:47;;;;;;;4.28;1.52;;;11.40;51.20;;;;;;6742991;88;20220;-79
2021/03/20 14:57:48;;;;;;;3.15;1.85;;;11.80;49.40;;;;;;6736322;88;20186;-78
2021/03/20 15:07:49;;;;;;;4.32;1.62;;;10.60;47.70;;;;;;6740090;88;20181;-79
2021/03/20 15:17:51;;;;;;;4.00;1.58;;;10.40;48.90;;;;;;6737107;88;20166;-78
2021/03/20 15:27:52;;;;;;;4.18;1.73;;;9.90;50.70;;;;;;6737282;88;20926;-78
2021/03/20 15:37:53;;;;;;;3.53;1.50;;;9.70;50.60;;;;;;6731453;88;20248;-79
2021/03/20 15:47:54;;;;;;;5.60;1.33;;;9.40;49.10;;;;;;6728614;88;20235;-79
2021/03/20 15:57:55;;;;;;;3.30;1.58;;;9.50;48.90;;;;;;6743199;88;20194;-79
2021/03/20 16:07:56;;;;;;;2.67;1.52;;;8.90;49.40;;;;;;6732117;88;20199;-79
2021/03/20 16:17:57;;;;;;;4.12;1.42;;;8.80;50.20;;;;;;6735534;88;20204;-80
2021/03/20 16:27:59;;;;;;;3.13;1.50;;;8.30;53.00;;;;;;6712020;88;20231;-79
2021/03/20 16:38:00;;;;;;;3.22;1.37;;;8.10;52.40;;;;;;6712024;88;20678;-79
2021/03/20 16:48:01;;;;;;;3.50;1.35;;;7.90;52.80;;;;;;6708291;88;20186;-80
2021/03/20 16:58:03;;;;;;;5.93;1.85;;;8.00;53.70;;;;;;6702138;88;20718;-79
2021/03/20 17:08:05;;;;;;;4.25;1.40;;;8.00;54.70;;;;;;6723922;88;20364;-79
2021/03/20 17:18:24;;;;;;;5.47;1.70;;;7.70;54.20;;;;;;6729971;88;20207;-77
2021/03/20 17:28:29;;;;;;;4.22;1.33;;;7.60;53.80;;;;;;6722237;88;20207;-77
2021/03/20 17:38:30;;;;;;;5.45;2.78;;;7.40;55.60;;;;;;6723040;88;20223;-78
2021/03/20 17:48:31;;;;;;;6.55;2.00;;;7.50;57.50;;;;;;6719298;88;20210;-80
2021/03/20 17:58:31;;;;;;;4.45;1.92;;;7.40;57.20;;;;;;6739734;88;20250;-77
2021/03/20 18:08:33;;;;;;;3.72;1.80;;;7.30;60.30;;;;;;6723563;88;20212;-78
2021/03/20 18:18:36;;;;;;;6.30;2.12;;;7.10;61.90;;;;;;6729694;88;20236;-78
2021/03/20 18:28:39;;;;;;;6.20;1.90;;;7.10;61.80;;;;;;6723112;88;20692;-76
2021/03/20 18:38:44;;;;;;;6.57;2.20;;;7.10;63.10;;;;;;6719880;88;20174;-76
2021/03/20 18:48:47;;;;;;;6.47;2.40;;;7.00;64.30;;;;;;6720102;88;20350;-79
2021/03/20 18:58:48;;;;;;;5.53;2.03;;;6.90;66.50;;;;;;6718600;88;20800;-75
2021/03/20 19:08:53;;;;;;;3.83;1.87;;;6.80;66.90;;;;;;6719941;88;20203;-76
2021/03/20 19:18:54;;;;;;;5.53;1.83;;;6.70;66.90;;;;;;6730174;88;20209;-76
2021/03/20 19:28:54;;;;;;;3.72;2.10;;;6.70;68.10;;;;;;6728586;88;20235;-76
2021/03/20 19:38:55;;;;;;;3.80;1.90;;;6.80;68.40;;;;;;6718819;88;20270;-76
2021/03/20 19:48:57;;;;;;;3.55;1.83;;;6.80;68.70;;;;;;6721837;88;20182;-76
2021/03/20 19:58:58;;;;;;;4.43;1.90;;;6.70;69.20;;;;;;6710572;88;20208;-76
2021/03/20 20:09:00;;;;;;;5.85;2.12;;;6.60;68.70;;;;;;6710263;88;20665;-76
2021/03/20 20:19:01;;;;;;;5.12;2.20;;;6.60;70.20;;;;;;6714631;88;20196;-76
2021/03/20 20:29:06;;;;;;;4.55;2.42;;;6.50;71.90;;;;;;6717669;88;20732;-77
2021/03/20 20:39:07;;;;;;;6.10;2.60;;;6.60;73.20;;;;;;6717086;88;20213;-76
2021/03/20 20:49:08;;;;;;;4.72;2.50;;;6.70;73.70;;;;;;6712377;88;20190;-76
2021/03/20 20:59:09;;;;;;;4.32;2.20;;;6.60;73.70;;;;;;6716901;88;20659;-76
2021/03/20 21:09:09;;;;;;;4.75;2.37;;;6.60;73.20;;;;;;6710582;88;20222;-76
2021/03/20 21:19:10;;;;;;;5.68;3.00;;;6.50;73.40;;;;;;6715952;88;20268;-76
2021/03/20 21:29:11;;;;;;;5.40;2.97;;;6.50;76.00;;;;;;6713303;88;20679;-75
2021/03/20 21:39:11;;;;;;;5.62;2.70;;;6.50;76.50;;;;;;6714050;88;20198;-76
2021/03/20 21:49:12;;;;;;;7.00;2.62;;;6.50;76.90;;;;;;6712694;88;20213;-76
2021/03/20 21:59:12;;;;;;;5.95;3.10;;;6.50;77.10;;;;;;6711128;88;20186;-76
2021/03/20 22:09:13;;;;;;;6.05;2.83;;;6.40;78.80;;;;;;6714368;88;20187;-75
2021/03/20 22:19:13;;;;;;;5.50;2.90;;;6.40;81.00;;;;;;6715133;88;20555;-76
2021/03/20 22:29:14;;;;;;;6.70;3.10;;;6.40;82.00;;;;;;6722776;88;20214;-75
2021/03/20 22:39:15;;;;;;;6.30;3.17;;;6.40;84.50;;;;;;6717065;88;20544;-75
2021/03/20 22:49:15;;;;;;;7.12;4.05;;;6.40;87.00;;;;;;6717210;88;20218;-75
2021/03/20 22:59:16;;;;;;;10.55;4.22;;;6.40;90.80;;;;;;6716186;88;20227;-76
2021/03/20 23:09:17;;;;;;;8.82;5.00;;;6.30;93.90;;;;;;6718836;88;20812;-75
2021/03/20 23:19:26;;;;;;;14.02;6.45;;;6.20;97.00;;;;;;6723330;88;20253;-76
2021/03/20 23:29:31;;;;;;;11.80;7.15;;;6.20;99.90;;;;;;6722495;88;20182;-75
2021/03/20 23:39:31;;;;;;;13.38;8.65;;;6.10;99.90;;;;;;6725396;88;20361;-75
2021/03/20 23:49:32;;;;;;;17.35;9.93;;;6.00;99.90;;;;;;6721457;88;20267;-75
2021/03/20 23:59:33;;;;;;;20.40;11.57;;;5.90;99.90;;;;;;6715784;88;20815;-75
